Time;durP1;ratioP1;P1;durP2;ratioP2;P2;SDS_P1;SDS_P2;PMS_P1;PMS_P2;Temp;Humidity;BMP_temperature;BMP_pressure;BME280_temperature;BME280_humidity;BME280_pressure;Samples;Min_cycle;Max_cycle;Signal;HPM_P1;HPM_P2
2022/12/21 00:00:19;;;;;;;1.83;1.73;;;;;;;10.03;100.00;98274.53;4218058;27;20213;-48
2022/12/21 00:02:20;;;;;;;1.65;1.55;;;;;;;10.08;100.00;98271.91;4199317;28;20230;-48
2022/12/21 00:04:22;;;;;;;1.50;1.15;;;;;;;10.12;100.00;98273.03;4185159;28;20874;-48
2022/12/21 00:06:26;;;;;;;1.90;1.77;;;;;;;10.10;100.00;98267.00;4205925;28;20293;-49
2022/12/21 00:08:28;;;;;;;1.63;1.52;;;;;;;10.14;100.00;98271.69;4184616;28;20643;-49
2022/12/21 00:10:29;;;;;;;2.45;2.25;;;;;;;10.07;100.00;98270.25;4216816;28;20846;-48
2022/12/21 00:12:31;;;;;;;3.83;1.52;;;;;;;10.09;100.00;98263.41;4220376;27;20784;-49
2022/12/21 00:14:33;;;;;;;2.15;2.05;;;;;;;10.06;100.00;98258.47;4203008;28;20202;-49
2022/12/21 00:16:37;;;;;;;1.80;1.48;;;;;;;10.02;100.00;98268.22;4217167;27;20210;-49
2022/12/21 00:18:40;;;;;;;2.35;2.13;;;;;;;10.12;100.00;98262.09;4215173;28;20218;-48
2022/12/21 00:20:41;;;;;;;1.83;1.73;;;;;;;10.11;100.00;98268.63;4204540;28;20234;-49
2022/12/21 00:22:43;;;;;;;1.73;1.63;;;;;;;10.21;100.00;98260.59;4203374;28;20206;-48
2022/12/21 00:24:45;;;;;;;2.05;1.90;;;;;;;10.12;100.00;98262.09;4200005;28;20714;-48
2022/12/21 00:26:47;;;;;;;2.83;2.28;;;;;;;10.09;100.00;98262.59;4200313;28;20682;-48
2022/12/21 00:28:50;;;;;;;1.73;1.42;;;;;;;10.11;100.00;98254.97;4199177;28;20277;-49
2022/12/21 00:30:52;;;;;;;1.65;1.55;;;;;;;10.14;100.00;98254.47;4215362;28;20205;-48
2022/12/21 00:32:54;;;;;;;2.08;1.55;;;;;;;10.12;100.00;98254.72;4216347;28;20828;-49
2022/12/21 00:34:56;;;;;;;2.13;1.95;;;;;;;10.18;100.00;98255.59;4203507;28;20207;-50
2022/12/21 00:36:58;;;;;;;1.80;1.70;;;;;;;10.21;100.00;98257.84;4204710;28;20234;-49
2022/12/21 00:39:01;;;;;;;1.95;1.80;;;;;;;10.16;100.00;98252.31;4205052;28;20231;-48
2022/12/21 00:41:05;;;;;;;2.20;2.00;;;;;;;10.18;100.00;98256.44;4208174;28;20231;-49
2022/12/21 00:43:07;;;;;;;1.60;1.50;;;;;;;10.24;100.00;98251.84;4202220;27;20210;-49
2022/12/21 00:45:09;;;;;;;2.17;2.08;;;;;;;10.15;100.00;98250.66;4224363;27;20247;-49
2022/12/21 00:47:12;;;;;;;3.55;2.60;;;;;;;10.16;100.00;98247.66;4222544;27;20260;-48
2022/12/21 00:49:14;;;;;;;1.58;1.48;;;;;;;10.13;100.00;98237.25;4210063;28;20739;-50
2022/12/21 00:51:23;;;;;;;1.90;1.80;;;;;;;10.08;100.00;98244.56;4208642;28;20237;-49
2022/12/21 00:53:29;;;;;;;2.17;2.03;;;;;;;10.09;100.00;98248.94;4220599;28;20259;-49
2022/12/21 00:55:31;;;;;;;1.50;1.40;;;;;;;10.12;100.00;98240.22;4223197;27;20714;-49
2022/12/21 00:57:32;;;;;;;1.80;1.40;;;;;;;10.09;100.00;98240.75;4206318;28;20604;-50
2022/12/21 00:59:34;;;;;;;1.48;1.38;;;;;;;10.08;100.00;98244.56;4225746;27;20760;-48
2022/12/21 01:01:36;;;;;;;1.25;1.25;;;;;;;10.12;100.00;98245.69;4209916;28;20293;-49
2022/12/21 01:03:38;;;;;;;1.38;1.30;;;;;;;10.16;100.00;98252.31;4206588;28;20245;-48
2022/12/21 01:05:39;;;;;;;1.92;1.83;;;;;;;10.14;100.00;98249.00;4210184;28;20282;-49
2022/12/21 01:07:41;;;;;;;1.50;1.40;;;;;;;10.16;100.00;98249.56;4209881;28;20222;-48
2022/12/21 01:09:43;;;;;;;1.27;1.20;;;;;;;10.17;100.00;98245.75;4195622;27;20250;-49
2022/12/21 01:11:45;;;;;;;1.15;1.15;;;;;;;10.15;100.00;98247.94;4205159;28;20351;-48
2022/12/21 01:13:47;;;;;;;1.30;1.20;;;;;;;10.16;100.00;98246.84;4223493;27;20645;-48
2022/12/21 01:15:49;;;;;;;1.30;1.20;;;;;;;10.12;100.00;98253.88;4206497;28;20267;-49
2022/12/21 01:17:51;;;;;;;1.05;1.05;;;;;;;10.19;100.00;98262.72;4221781;27;20290;-48
2022/12/21 01:19:52;;;;;;;1.30;1.20;;;;;;;10.16;100.00;98257.78;4211298;28;20263;-48
2022/12/21 01:21:54;;;;;;;1.13;1.13;;;;;;;10.18;100.00;98261.06;4206000;28;20214;-48
2022/12/21 01:23:57;;;;;;;1.70;1.30;;;;;;;10.19;100.00;98257.25;4221936;27;20275;-48
2022/12/21 01:25:59;;;;;;;1.15;1.00;;;;;;;10.22;100.00;98256.78;4223194;27;20218;-50
2022/12/21 01:28:00;;;;;;;1.75;1.73;;;;;;;10.24;100.00;98260.91;4194335;28;20269;-48
2022/12/21 01:30:05;;;;;;;0.90;0.90;;;;;;;10.28;100.00;98262.03;4223195;27;20211;-48
2022/12/21 01:32:07;;;;;;;1.83;1.25;;;;;;;10.27;100.00;98265.03;4223954;27;20229;-50
2022/12/21 01:34:10;;;;;;;1.17;1.10;;;;;;;10.32;100.00;98259.63;4203569;28;20211;-49
2022/12/21 01:36:14;;;;;;;0.90;0.90;;;;;;;10.29;100.00;98260.13;4222086;27;20246;-49
2022/12/21 01:38:16;;;;;;;1.33;1.25;;;;;;;10.27;100.00;98276.78;4201377;28;20226;-49
2022/12/21 01:40:18;;;;;;;1.10;1.10;;;;;;;10.28;100.00;98272.16;4191349;28;20197;-48
2022/12/21 01:42:20;;;;;;;1.17;1.17;;;;;;;10.27;100.00;98270.50;4209594;28;20202;-48
2022/12/21 01:45:00;;;;;;;2.33;1.20;;;;;;;10.24;100.00;98276.47;4223432;27;20219;-49
2022/12/21 01:47:02;;;;;;;1.08;1.08;;;;;;;10.24;100.00;98276.47;4216036;27;20207;-49
2022/12/21 01:49:04;;;;;;;1.33;1.23;;;;;;;10.28;100.00;98283.09;4199823;28;20318;-49
2022/12/21 01:51:06;;;;;;;0.90;0.90;;;;;;;10.30;100.00;98279.03;4200035;28;20732;-49
2022/12/21 01:53:13;;;;;;;1.30;1.30;;;;;;;10.26;100.00;98279.78;4201318;28;20246;-48
2022/12/21 01:55:15;;;;;;;1.00;1.00;;;;;;;10.26;100.00;98271.56;4218216;28;20236;-49
2022/12/21 01:57:17;;;;;;;1.10;1.10;;;;;;;10.24;100.00;98273.75;4200712;28;20742;-49
2022/12/21 01:59:32;;;;;;;1.55;1.45;;;;;;;10.23;100.00;98274.81;4199620;28;20699;-49
2022/12/21 02:01:34;;;;;;;1.05;1.05;;;;;;;10.20;100.00;98269.84;4190714;28;20290;-49
2022/12/21 02:03:43;;;;;;;1.42;1.33;;;;;;;10.25;100.00;98267.19;4202660;28;20207;-49
2022/12/21 02:05:52;;;;;;;1.77;1.27;;;;;;;10.28;100.00;98272.97;4219658;27;20260;-49
2022/12/21 02:07:57;;;;;;;1.15;1.15;;;;;;;10.29;100.00;98271.06;4204799;28;20743;-48
2022/12/21 02:09:59;;;;;;;1.15;1.05;;;;;;;10.29;100.00;98265.59;4218979;28;20638;-48
2022/12/21 02:12:04;;;;;;;0.88;0.88;;;;;;;10.23;100.00;98269.34;4203071;28;20253;-48
2022/12/21 02:14:15;;;;;;;0.95;0.90;;;;;;;10.21;100.00;98272.34;4202048;28;21062;-49
2022/12/21 02:16:22;;;;;;;1.77;1.20;;;;;;;10.17;100.00;98271.22;4217981;28;20234;-48
2022/12/21 02:19:02;;;;;;;1.17;1.17;;;;;;;10.18;100.00;98263.81;4201252;28;20226;-49
2022/12/21 02:21:16;;;;;;;0.93;0.93;;;;;;;10.25;100.00;98261.72;4154185;28;20250;-49
2022/12/21 02:23:20;;;;;;;1.10;1.10;;;;;;;10.26;100.00;98263.38;4188647;28;20206;-48
2022/12/21 02:25:46;;;;;;;3.28;1.23;;;;;;;10.27;100.00;98254.91;4220451;27;20224;-48
2022/12/21 02:28:25;;;;;;;1.17;1.10;;;;;;;10.27;100.00;98259.56;4219270;28;20227;-48
2022/12/21 02:30:49;;;;;;;0.90;0.90;;;;;;;10.24;100.00;98260.91;4217970;28;20232;-49
2022/12/21 02:33:16;;;;;;;1.00;1.00;;;;;;;10.23;100.00;98252.94;4217996;28;20202;-48
2022/12/21 02:35:30;;;;;;;1.00;1.00;;;;;;;10.24;100.00;98260.06;4218689;28;20610;-49
2022/12/21 02:38:02;;;;;;;0.90;0.90;;;;;;;10.25;100.00;98251.63;4218518;27;20675;-49
2022/12/21 02:40:18;;;;;;;0.90;0.90;;;;;;;10.27;100.00;98248.63;4209097;28;20199;-48
2022/12/21 02:45:52;;;;;;;0.90;0.80;;;;;;;10.26;100.00;98246.94;4216202;28;20312;-49
2022/12/21 02:48:14;;;;;;;0.90;0.90;;;;;;;10.30;100.00;98253.59;4178627;28;20242;-48
2022/12/21 02:50:24;;;;;;;1.75;1.30;;;;;;;10.26;100.00;98252.44;4202988;28;20314;-48
2022/12/21 02:52:36;;;;;;;0.90;0.90;;;;;;;10.24;100.00;98243.66;4204064;28;20238;-49
2022/12/21 02:54:39;;;;;;;1.08;1.08;;;;;;;10.29;100.00;98241.00;4205712;28;20294;-49
2022/12/21 02:56:41;;;;;;;1.20;1.10;;;;;;;10.23;100.00;98231.06;4200566;28;20203;-48
2022/12/21 02:58:43;;;;;;;0.95;0.95;;;;;;;10.27;100.00;98240.44;4202166;28;20226;-48
2022/12/21 03:01:21;;;;;;;1.40;1.30;;;;;;;10.25;100.00;98228.91;4204659;28;20198;-48
2022/12/21 03:03:52;;;;;;;0.93;0.93;;;;;;;10.27;100.00;98232.22;4217844;27;20202;-48
2022/12/21 03:06:37;;;;;;;1.08;1.08;;;;;;;10.24;100.00;98240.91;4201452;28;20205;-48
2022/12/21 03:08:57;;;;;;;1.20;1.20;;;;;;;10.21;100.00;98235.97;4158752;28;20257;-48
2022/12/21 03:11:01;;;;;;;1.30;1.20;;;;;;;10.22;100.00;98240.38;4203829;28;20238;-48
2022/12/21 03:13:23;;;;;;;0.90;0.90;;;;;;;10.28;100.00;98244.81;4188390;28;20207;-48
2022/12/21 03:15:39;;;;;;;0.90;0.90;;;;;;;10.30;100.00;98239.91;4198945;28;20282;-49
2022/12/21 03:17:51;;;;;;;1.00;1.00;;;;;;;10.33;100.00;98236.66;4202602;28;20337;-48
2022/12/21 03:20:08;;;;;;;0.95;0.95;;;;;;;10.36;100.00;98247.09;4200759;28;20317;-48
2022/12/21 03:22:20;;;;;;;1.10;1.10;;;;;;;10.34;100.00;98244.59;4206296;28;20653;-48
2022/12/21 03:24:26;;;;;;;1.02;1.00;;;;;;;10.32;100.00;98235.00;4203224;28;20241;-48
2022/12/21 03:26:41;;;;;;;1.48;1.38;;;;;;;10.30;100.00;98243.47;4199741;28;20226;-49
2022/12/21 03:28:44;;;;;;;0.95;0.95;;;;;;;10.30;100.00;98232.53;4201159;28;20247;-49
2022/12/21 03:30:51;;;;;;;0.90;0.90;;;;;;;10.26;100.00;98225.06;4203253;28;20602;-48
2022/12/21 03:33:01;;;;;;;0.70;0.70;;;;;;;10.27;100.00;98243.16;4204457;28;20211;-48
2022/12/21 03:35:07;;;;;;;0.90;0.85;;;;;;;10.24;100.00;98243.66;4217259;27;20194;-49
2022/12/21 03:37:17;;;;;;;0.93;0.93;;;;;;;10.34;100.00;98241.06;4203057;28;20206;-48
2022/12/21 03:39:21;;;;;;;0.95;0.95;;;;;;;10.33;100.00;98242.13;4198146;28;20237;-48
2022/12/21 03:41:32;;;;;;;1.13;0.90;;;;;;;10.30;100.00;98237.19;4217065;28;20253;-48
2022/12/21 03:43:35;;;;;;;1.75;1.10;;;;;;;10.31;100.00;98244.28;4217569;27;20201;-48
2022/12/21 03:45:40;;;;;;;1.08;0.98;;;;;;;10.30;100.00;98237.19;4202186;28;20642;-49
2022/12/21 03:47:48;;;;;;;1.02;1.02;;;;;;;10.22;100.00;98230.22;4201627;28;20223;-49
2022/12/21 03:49:54;;;;;;;1.00;1.00;;;;;;;10.28;100.00;98236.63;4219588;28;20255;-49
2022/12/21 03:52:01;;;;;;;1.10;1.10;;;;;;;10.27;100.00;98226.75;4200324;28;20606;-48
2022/12/21 03:54:09;;;;;;;1.00;1.00;;;;;;;10.26;100.00;98230.56;4199577;28;20691;-49
2022/12/21 03:56:17;;;;;;;1.20;1.20;;;;;;;10.29;100.00;98227.31;4202309;28;20646;-49
2022/12/21 03:58:19;;;;;;;0.90;0.90;;;;;;;10.29;100.00;98224.59;4216356;28;20297;-49
2022/12/21 04:00:21;;;;;;;1.02;1.02;;;;;;;10.30;100.00;98231.69;4190436;28;20371;-49
2022/12/21 04:02:29;;;;;;;0.90;0.90;;;;;;;10.28;100.00;98237.41;4201627;28;20198;-48
2022/12/21 04:04:52;;;;;;;0.80;0.80;;;;;;;10.26;100.00;98231.38;4217451;27;20972;-48
2022/12/21 04:06:56;;;;;;;1.00;1.00;;;;;;;10.29;100.00;98222.66;4216508;27;20292;-49
2022/12/21 04:08:58;;;;;;;1.17;1.17;;;;;;;10.32;100.00;98224.06;4206337;28;20234;-48
2022/12/21 04:11:00;;;;;;;1.10;1.10;;;;;;;10.28;100.00;98239.34;4215612;28;20756;-49
2022/12/21 04:13:02;;;;;;;0.88;0.88;;;;;;;10.23;100.00;98233.81;4218687;27;20577;-49
2022/12/21 04:15:12;;;;;;;1.80;1.10;;;;;;;10.30;100.00;98229.81;4215371;28;20837;-48
2022/12/21 04:17:14;;;;;;;0.77;0.77;;;;;;;10.34;100.00;98224.66;4189598;28;20238;-49
2022/12/21 04:21:39;;;;;;;0.95;0.95;;;;;;;10.28;100.00;98221.00;4217589;27;20653;-49
2022/12/21 04:28:24;;;;;;;1.20;1.10;;;;;;;10.26;100.00;98230.56;4218050;27;20328;-49
2022/12/21 04:30:46;;;;;;;1.10;1.10;;;;;;;10.32;100.00;98224.06;4202379;28;20237;-49
2022/12/21 04:32:48;;;;;;;1.42;0.90;;;;;;;10.36;100.00;98225.22;4197748;28;20254;-49
2022/12/21 04:34:50;;;;;;;0.88;0.88;;;;;;;10.36;100.00;98236.16;4200027;28;20211;-49
2022/12/21 04:39:11;;;;;;;0.90;0.90;;;;;;;10.30;100.00;98232.53;4216677;28;20369;-48
2022/12/21 04:41:13;;;;;;;1.08;1.08;;;;;;;10.30;100.00;98243.47;4198743;28;20230;-48
2022/12/21 04:43:15;;;;;;;0.95;0.90;;;;;;;10.37;100.00;98237.81;4202708;28;20233;-48
2022/12/21 04:45:17;;;;;;;0.82;0.82;;;;;;;10.37;100.00;98233.19;4201015;28;20290;-50
2022/12/21 04:47:19;;;;;;;0.70;0.70;;;;;;;10.36;100.00;98236.16;4188614;28;20238;-48
2022/12/21 04:49:21;;;;;;;1.27;1.10;;;;;;;10.37;100.00;98232.34;4204597;28;20583;-48
2022/12/21 04:51:24;;;;;;;1.13;1.13;;;;;;;10.41;100.00;98238.97;4203428;28;20260;-48
2022/12/21 04:53:26;;;;;;;0.98;0.98;;;;;;;10.40;100.00;98229.91;4212501;28;22716;-48
2022/12/21 04:55:28;;;;;;;1.08;1.08;;;;;;;10.40;100.00;98227.19;4179012;28;20211;-48
2022/12/21 04:57:30;;;;;;;1.13;1.02;;;;;;;10.42;100.00;98235.94;4194992;28;20203;-48
2022/12/21 04:59:32;;;;;;;0.98;0.98;;;;;;;10.43;100.00;98237.63;4214973;28;20982;-48
2022/12/21 05:01:34;;;;;;;7.18;1.02;;;;;;;10.45;100.00;98229.13;4197952;28;20210;-49
2022/12/21 05:03:36;;;;;;;0.80;0.80;;;;;;;10.43;100.00;98226.69;4202478;28;20218;-48
2022/12/21 05:05:38;;;;;;;0.90;0.90;;;;;;;10.40;100.00;98226.34;4216570;28;20205;-49
2022/12/21 05:07:40;;;;;;;1.13;1.13;;;;;;;10.38;100.00;98229.34;4188279;28;20317;-49
2022/12/21 05:09:41;;;;;;;1.27;1.17;;;;;;;10.38;100.00;98223.03;4204761;28;20202;-49
2022/12/21 05:11:43;;;;;;;0.80;0.80;;;;;;;10.41;100.00;98217.06;4200416;28;20332;-48
2022/12/21 05:13:46;;;;;;;1.05;1.05;;;;;;;10.39;100.00;98219.22;4187110;28;20286;-48
2022/12/21 05:15:48;;;;;;;1.17;0.90;;;;;;;10.37;100.00;98210.44;4216894;28;20234;-48
2022/12/21 05:17:50;;;;;;;0.77;0.77;;;;;;;10.36;100.00;98215.09;4201317;28;20621;-48
2022/12/21 05:19:52;;;;;;;0.80;0.80;;;;;;;10.39;100.00;98213.75;4215657;28;20221;-48
2022/12/21 05:21:53;;;;;;;0.73;0.73;;;;;;;10.36;100.00;98215.09;4206058;28;20229;-49
2022/12/21 05:23:55;;;;;;;0.85;0.85;;;;;;;10.46;100.00;98214.38;4204487;28;20593;-48
2022/12/21 05:25:57;;;;;;;1.17;0.90;;;;;;;10.41;100.00;98212.41;4206751;28;20228;-48
2022/12/21 05:27:59;;;;;;;1.00;1.00;;;;;;;10.41;100.00;98214.34;4218381;27;20221;-49
2022/12/21 05:30:01;;;;;;;0.90;0.90;;;;;;;10.40;100.00;98209.94;4201544;28;20302;-49
2022/12/21 05:32:04;;;;;;;0.80;0.80;;;;;;;10.41;100.00;98208.88;4199143;28;20211;-48
2022/12/21 05:34:05;;;;;;;0.95;0.95;;;;;;;10.35;100.00;98213.44;4216259;27;20612;-49
2022/12/21 05:36:10;;;;;;;1.00;1.00;;;;;;;10.39;100.00;98211.00;4199538;28;20302;-49
2022/12/21 05:38:11;;;;;;;0.85;0.85;;;;;;;10.41;100.00;98208.88;4200768;28;20784;-48
2022/12/21 05:40:14;;;;;;;1.25;0.90;;;;;;;10.42;100.00;98213.25;4202059;28;20227;-48
2022/12/21 05:42:16;;;;;;;0.80;0.80;;;;;;;10.45;100.00;98212.72;4189527;28;20268;-48
2022/12/21 05:44:18;;;;;;;1.13;1.10;;;;;;;10.43;100.00;98202.06;4219237;27;20237;-48
2022/12/21 05:46:19;;;;;;;0.98;0.98;;;;;;;10.46;100.00;98197.97;4182827;28;20212;-48
2022/12/21 05:48:26;;;;;;;0.73;0.73;;;;;;;10.51;100.00;98206.22;4204633;28;20219;-49
2022/12/21 05:50:28;;;;;;;0.80;0.80;;;;;;;10.46;100.00;98211.66;4187920;28;20231;-48
2022/12/21 05:52:30;;;;;;;1.08;1.08;;;;;;;10.40;100.00;98204.47;4185590;28;20212;-48
2022/12/21 05:54:32;;;;;;;1.15;1.15;;;;;;;10.40;100.00;98199.00;4220699;27;20237;-49
2022/12/21 05:56:36;;;;;;;0.73;0.70;;;;;;;10.40;100.00;98204.47;4201903;28;20221;-48
2022/12/21 05:58:48;;;;;;;1.65;0.60;;;;;;;10.37;100.00;98210.44;4198829;28;20230;-49
2022/12/21 06:00:50;;;;;;;1.02;1.02;;;;;;;10.37;100.00;98205.81;4220357;28;20207;-48
2022/12/21 06:02:52;;;;;;;0.80;0.80;;;;;;;10.38;100.00;98207.47;4190634;28;20211;-49
2022/12/21 06:04:53;;;;;;;0.63;0.63;;;;;;;10.37;100.00;98210.44;4217885;27;20224;-48
2022/12/21 06:06:56;;;;;;;2.25;0.85;;;;;;;10.39;100.00;98211.84;4221653;28;20501;-48
2022/12/21 06:09:11;;;;;;;0.82;0.82;;;;;;;10.44;100.00;98208.34;4216184;28;20312;-48
2022/12/21 06:11:21;;;;;;;0.80;0.80;;;;;;;10.40;100.00;98212.66;4219897;27;20252;-48
2022/12/21 06:13:23;;;;;;;0.73;0.73;;;;;;;10.42;100.00;98213.25;4220372;28;20224;-48
2022/12/21 06:15:34;;;;;;;0.77;0.77;;;;;;;10.40;100.00;98215.41;4209052;28;20242;-48
2022/12/21 06:17:36;;;;;;;0.95;0.70;;;;;;;10.36;100.00;98211.53;4220535;28;20277;-48
2022/12/21 06:19:37;;;;;;;0.75;0.75;;;;;;;10.35;100.00;98207.97;4207764;28;20733;-48
2022/12/21 06:21:42;;;;;;;0.73;0.73;;;;;;;10.34;100.00;98211.78;4202226;28;20199;-48
2022/12/21 06:23:58;;;;;;;1.00;1.00;;;;;;;10.33;100.00;98209.31;4201208;28;20634;-48
2022/12/21 06:26:02;;;;;;;0.80;0.80;;;;;;;10.30;100.00;98215.28;4201471;28;20218;-48
2022/12/21 06:28:03;;;;;;;0.85;0.85;;;;;;;10.30;100.00;98209.81;4210076;28;20643;-48
2022/12/21 06:30:06;;;;;;;0.93;0.93;;;;;;;10.30;100.00;98209.81;4199736;28;20752;-48
2022/12/21 06:32:21;;;;;;;2.47;1.00;;;;;;;10.31;100.00;98203.28;4218466;28;20217;-48
2022/12/21 06:34:23;;;;;;;0.93;0.93;;;;;;;10.30;100.00;98218.88;4190930;28;20659;-48
2022/12/21 06:36:24;;;;;;;0.82;0.82;;;;;;;10.25;100.00;98207.03;4203659;28;20203;-48
2022/12/21 06:38:30;;;;;;;0.65;0.65;;;;;;;10.29;100.00;98219.13;4202186;28;20226;-48
2022/12/21 06:40:32;;;;;;;0.85;0.85;;;;;;;10.25;100.00;98220.69;4186138;28;20208;-50
2022/12/21 06:42:45;;;;;;;0.80;0.80;;;;;;;10.31;100.00;98211.47;4204096;28;20761;-49
2022/12/21 06:44:47;;;;;;;0.75;0.75;;;;;;;10.31;100.00;98227.88;4216649;28;20205;-48
2022/12/21 06:46:49;;;;;;;0.98;0.98;;;;;;;10.34;100.00;98228.19;4185619;28;20231;-48
2022/12/21 06:48:51;;;;;;;1.08;0.98;;;;;;;10.37;100.00;98232.34;4201572;28;20235;-49
2022/12/21 06:50:54;;;;;;;0.77;0.77;;;;;;;10.38;100.00;98236.72;4201396;28;20233;-49
2022/12/21 06:52:56;;;;;;;3.15;0.65;;;;;;;10.30;100.00;98237.19;4205794;28;20211;-49
2022/12/21 06:55:08;;;;;;;0.80;0.80;;;;;;;10.32;100.00;98240.47;4207314;28;20215;-48
2022/12/21 06:57:10;;;;;;;0.70;0.70;;;;;;;10.27;100.00;98237.69;4205931;28;20206;-49
2022/12/21 06:59:12;;;;;;;0.80;0.80;;;;;;;10.31;100.00;98238.81;4219014;28;20385;-48
2022/12/21 07:01:19;;;;;;;1.90;1.13;;;;;;;10.33;100.00;98233.91;4202282;28;20245;-49
2022/12/21 07:03:34;;;;;;;1.40;0.70;;;;;;;10.31;100.00;98233.34;4200323;28;20222;-48
2022/12/21 07:05:44;;;;;;;0.88;0.88;;;;;;;10.34;100.00;98239.13;4219630;28;20222;-48
2022/12/21 07:07:56;;;;;;;1.48;1.40;;;;;;;10.33;100.00;98232.03;4201149;28;20633;-48
2022/12/21 07:09:58;;;;;;;1.08;1.02;;;;;;;10.41;100.00;98236.22;4217408;28;20680;-49
2022/12/21 07:12:00;;;;;;;1.20;1.10;;;;;;;10.40;100.00;98240.00;4200488;28;20232;-49
2022/12/21 07:14:02;;;;;;;0.90;0.90;;;;;;;10.38;100.00;98244.91;4217324;28;20202;-49
2022/12/21 07:16:05;;;;;;;1.20;1.20;;;;;;;10.42;100.00;98240.59;4200652;28;20202;-49
2022/12/21 07:18:07;;;;;;;1.05;1.00;;;;;;;10.41;100.00;98238.97;4207249;28;20222;-49
2022/12/21 07:20:09;;;;;;;1.35;1.30;;;;;;;10.42;100.00;98246.06;4199096;28;20612;-50
2022/12/21 07:22:21;;;;;;;1.00;1.00;;;;;;;10.45;100.00;98251.88;4205752;28;20211;-48
2022/12/21 07:24:22;;;;;;;1.40;1.30;;;;;;;10.40;100.00;98249.06;4189040;28;20212;-48
2022/12/21 07:26:24;;;;;;;0.93;0.93;;;;;;;10.46;100.00;98247.19;4219840;27;20259;-49
2022/12/21 07:28:26;;;;;;;1.10;1.10;;;;;;;10.45;100.00;98251.03;4200285;28;20308;-49
2022/12/21 07:30:28;;;;;;;1.00;1.00;;;;;;;10.45;100.00;98261.97;4203165;28;20851;-49
2022/12/21 07:32:30;;;;;;;2.15;1.33;;;;;;;10.44;100.00;98258.41;4199783;28;20207;-50
2022/12/21 07:34:32;;;;;;;1.30;1.20;;;;;;;10.44;100.00;98254.84;4218460;28;20212;-50
2022/12/21 07:36:44;;;;;;;1.30;1.20;;;;;;;10.40;100.00;98256.44;4219707;28;20201;-51
2022/12/21 07:38:47;;;;;;;1.17;1.08;;;;;;;10.38;100.00;98256.69;4198731;28;20651;-49
2022/12/21 07:40:49;;;;;;;1.08;1.08;;;;;;;10.41;100.00;98260.84;4215913;28;20213;-48
2022/12/21 07:42:50;;;;;;;0.80;0.80;;;;;;;10.44;100.00;98254.84;4216791;28;20214;-48
2022/12/21 07:44:52;;;;;;;1.10;1.10;;;;;;;10.43;100.00;98254.03;4202314;28;20441;-49
2022/12/21 07:46:54;;;;;;;1.30;1.17;;;;;;;10.44;100.00;98254.84;4220361;28;20208;-49
2022/12/21 07:49:11;;;;;;;1.30;1.20;;;;;;;10.46;100.00;98258.13;4189372;28;20261;-49
2022/12/21 07:51:14;;;;;;;1.67;1.58;;;;;;;10.46;100.00;98258.13;4200421;28;20796;-48
2022/12/21 07:53:16;;;;;;;1.27;1.17;;;;;;;10.41;100.00;98247.16;4216948;28;20201;-49
2022/12/21 07:55:18;;;;;;;1.40;1.30;;;;;;;10.49;100.00;98246.72;4186284;28;20205;-48
2022/12/21 07:57:20;;;;;;;1.40;1.30;;;;;;;10.48;100.00;98251.34;4200485;28;20207;-48
2022/12/21 07:59:21;;;;;;;1.08;1.08;;;;;;;10.42;100.00;98257.03;4199999;28;20233;-48
2022/12/21 08:01:26;;;;;;;4.50;1.67;;;;;;;10.46;100.00;98253.50;4217126;28;20282;-48
2022/12/21 08:03:38;;;;;;;1.45;1.02;;;;;;;10.47;100.00;98251.63;4182897;28;20234;-49
2022/12/21 08:05:40;;;;;;;2.40;1.25;;;;;;;10.47;100.00;98254.34;4206220;28;20238;-48
2022/12/21 08:07:42;;;;;;;1.00;1.00;;;;;;;10.48;100.00;98256.00;4200670;28;20248;-49
2022/12/21 08:09:44;;;;;;;1.20;1.20;;;;;;;10.56;100.00;98252.81;4200732;28;20228;-50
2022/12/21 08:11:46;;;;;;;1.73;1.63;;;;;;;10.59;100.00;98257.75;4219026;28;20294;-48
2022/12/21 08:13:48;;;;;;;1.15;1.15;;;;;;;10.54;100.00;98263.19;4200065;28;20249;-48
2022/12/21 08:16:01;;;;;;;0.95;0.95;;;;;;;10.52;100.00;98260.69;4200988;28;20654;-48
2022/12/21 08:18:03;;;;;;;1.40;1.30;;;;;;;10.56;100.00;98269.22;4201716;28;20226;-48
2022/12/21 08:20:11;;;;;;;1.20;1.10;;;;;;;10.50;100.00;98270.25;4214799;28;20254;-48
2022/12/21 08:22:13;;;;;;;1.60;1.50;;;;;;;10.48;100.00;98266.94;4202346;28;21127;-48
2022/12/21 08:24:15;;;;;;;1.10;1.10;;;;;;;10.50;100.00;98264.78;4216774;28;20214;-49
2022/12/21 08:26:17;;;;;;;1.33;1.23;;;;;;;10.52;100.00;98262.59;4202404;28;20213;-49
2022/12/21 08:28:31;;;;;;;1.35;1.25;;;;;;;10.53;100.00;98266.97;4198765;28;20226;-48
2022/12/21 08:30:33;;;;;;;1.30;1.20;;;;;;;10.56;100.00;98269.22;4200526;28;20233;-49
2022/12/21 08:32:35;;;;;;;1.48;1.38;;;;;;;10.55;100.00;98267.56;4188324;28;20319;-48
2022/12/21 08:34:37;;;;;;;1.20;1.20;;;;;;;10.57;100.00;98279.06;4217053;28;20199;-48
2022/12/21 08:36:40;;;;;;;1.20;1.20;;;;;;;10.57;100.00;98276.34;4206251;28;20240;-48
2022/12/21 08:38:42;;;;;;;1.17;1.08;;;;;;;10.57;100.00;98276.34;4200123;28;20305;-49
2022/12/21 08:41:05;;;;;;;1.20;1.20;;;;;;;10.63;100.00;98272.59;4216837;28;20288;-48
2022/12/21 08:43:07;;;;;;;1.50;1.40;;;;;;;10.60;100.00;98273.06;4200149;28;20678;-48
2022/12/21 08:45:14;;;;;;;1.73;1.63;;;;;;;10.58;100.00;98278.00;4198399;28;20306;-48
2022/12/21 08:47:16;;;;;;;2.55;1.30;;;;;;;10.57;100.00;98270.88;4184723;28;20268;-48
2022/12/21 08:49:18;;;;;;;1.38;1.30;;;;;;;10.60;100.00;98281.28;4203301;28;20257;-48
2022/12/21 08:51:20;;;;;;;1.38;1.35;;;;;;;10.51;100.00;98271.88;4199367;28;20760;-48
2022/12/21 08:53:22;;;;;;;1.48;1.38;;;;;;;10.46;100.00;98280.03;4198908;28;20237;-49
2022/12/21 08:55:24;;;;;;;1.10;1.10;;;;;;;10.53;100.00;98280.66;4203427;28;20636;-49
2022/12/21 08:57:26;;;;;;;1.65;1.35;;;;;;;10.52;100.00;98276.28;4199594;28;20206;-49
2022/12/21 08:59:28;;;;;;;1.73;1.63;;;;;;;10.51;100.00;98282.84;4220086;28;20210;-49
2022/12/21 09:01:30;;;;;;;1.40;1.40;;;;;;;10.52;100.00;98285.31;4219684;27;20259;-49
2022/12/21 09:03:32;;;;;;;1.23;1.13;;;;;;;10.56;100.00;98291.09;4205880;28;20207;-48
2022/12/21 09:05:45;;;;;;;1.58;1.40;;;;;;;10.66;100.00;98280.25;4193431;28;20579;-49
2022/12/21 09:07:47;;;;;;;1.20;1.10;;;;;;;10.64;100.00;98293.38;4202283;28;20291;-48
2022/12/21 09:09:49;;;;;;;1.60;1.50;;;;;;;10.60;100.00;98297.69;4221888;28;20271;-49
2022/12/21 09:11:51;;;;;;;1.58;1.48;;;;;;;10.67;100.00;98287.41;4205396;28;20792;-49
2022/12/21 09:13:56;;;;;;;1.35;1.20;;;;;;;10.66;100.00;98296.69;4201824;28;20207;-48
2022/12/21 09:15:57;;;;;;;1.20;1.20;;;;;;;10.69;100.00;98298.94;4219035;28;20229;-48
2022/12/21 09:17:59;;;;;;;0.95;0.95;;;;;;;10.67;100.00;98290.16;4219101;28;20732;-49
2022/12/21 09:20:01;;;;;;;1.25;1.20;;;;;;;10.70;100.00;98295.09;4203226;28;20199;-49
2022/12/21 09:22:03;;;;;;;1.15;1.13;;;;;;;10.76;100.00;98296.81;4220001;28;20542;-48
2022/12/21 09:24:14;;;;;;;1.15;1.15;;;;;;;10.77;100.00;98300.13;4201833;28;20207;-48
2022/12/21 09:26:16;;;;;;;1.52;1.42;;;;;;;10.78;100.00;98306.44;4202088;28;20207;-48
2022/12/21 09:28:18;;;;;;;1.23;1.13;;;;;;;10.79;100.00;98300.69;4201793;28;20261;-48
2022/12/21 09:30:21;;;;;;;1.27;0.98;;;;;;;10.78;100.00;98307.25;4208377;28;20222;-49
2022/12/21 09:32:24;;;;;;;1.02;0.93;;;;;;;10.78;100.00;98307.25;4201778;28;20219;-48
2022/12/21 09:34:25;;;;;;;1.40;1.17;;;;;;;10.83;100.00;98310.03;4200428;28;20222;-48
2022/12/21 09:36:27;;;;;;;1.38;1.10;;;;;;;10.82;100.00;98308.38;4201416;28;20239;-48
2022/12/21 09:38:30;;;;;;;0.95;0.95;;;;;;;10.84;100.00;98311.69;4200532;28;20231;-48
2022/12/21 09:40:42;;;;;;;1.08;1.02;;;;;;;10.85;100.00;98307.88;4220772;28;20570;-48
2022/12/21 09:42:43;;;;;;;1.38;1.27;;;;;;;10.84;100.00;98306.22;4203839;28;20722;-48
2022/12/21 09:45:13;;;;;;;1.67;1.25;;;;;;;10.87;100.00;98304.06;4203749;28;20207;-48
2022/12/21 09:47:27;;;;;;;1.15;1.15;;;;;;;10.90;100.00;98309.84;4192471;28;20203;-48
2022/12/21 09:49:56;;;;;;;2.15;1.15;;;;;;;10.89;100.00;98311.75;4186735;28;20200;-48
2022/12/21 09:52:01;;;;;;;1.00;0.88;;;;;;;10.88;100.00;98318.31;4203467;28;20227;-48
2022/12/21 09:54:08;;;;;;;1.10;1.10;;;;;;;10.83;100.00;98318.25;4218060;28;20252;-48
2022/12/21 09:56:15;;;;;;;1.00;1.00;;;;;;;10.83;100.00;98310.03;4202655;28;20279;-48